sensor_id;sensor_type;location;lat;lon;timestamp;P1;durP1;ratioP1;P2;durP2;ratioP2
12556;SDS011;6344;49.932;8.308;2022-11-13T00:02:10;134.23;;;35.43;;
12556;SDS011;6344;49.932;8.308;2022-11-13T00:04:42;128.57;;;34.50;;
12556;SDS011;6344;49.932;8.308;2022-11-13T00:07:08;171.67;;;37.03;;
12556;SDS011;6344;49.932;8.308;2022-11-13T00:09:35;131.87;;;33.90;;
12556;SDS011;6344;49.932;8.308;2022-11-13T00:12:03;169.40;;;37.90;;
12556;SDS011;6344;49.932;8.308;2022-11-13T00:14:30;79.50;;;32.30;;
12556;SDS011;6344;49.932;8.308;2022-11-13T00:16:57;96.70;;;33.33;;
12556;SDS011;6344;49.932;8.308;2022-11-13T00:19:27;88.20;;;31.53;;
12556;SDS011;6344;49.932;8.308;2022-11-13T00:21:59;91.20;;;33.27;;
12556;SDS011;6344;49.932;8.308;2022-11-13T00:24:26;31.20;;;17.60;;
12556;SDS011;6344;49.932;8.308;2022-11-13T00:26:54;49.50;;;28.10;;
12556;SDS011;6344;49.932;8.308;2022-11-13T00:29:23;42.03;;;25.53;;
12556;SDS011;6344;49.932;8.308;2022-11-13T00:31:55;56.90;;;26.63;;
12556;SDS011;6344;49.932;8.308;2022-11-13T00:34:24;62.43;;;29.57;;
12556;SDS011;6344;49.932;8.308;2022-11-13T00:36:54;60.30;;;28.50;;
12556;SDS011;6344;49.932;8.308;2022-11-13T00:39:24;63.23;;;30.00;;
12556;SDS011;6344;49.932;8.308;2022-11-13T00:41:50;46.80;;;25.53;;
12556;SDS011;6344;49.932;8.308;2022-11-13T00:44:19;48.27;;;25.60;;
12556;SDS011;6344;49.932;8.308;2022-11-13T00:46:48;49.80;;;27.87;;
12556;SDS011;6344;49.932;8.308;2022-11-13T00:49:15;44.00;;;26.70;;
12556;SDS011;6344;49.932;8.308;2022-11-13T00:51:44;51.70;;;25.70;;
12556;SDS011;6344;49.932;8.308;2022-11-13T00:54:14;53.93;;;27.50;;
12556;SDS011;6344;49.932;8.308;2022-11-13T00:56:43;62.97;;;26.57;;
12556;SDS011;6344;49.932;8.308;2022-11-13T00:59:10;46.03;;;24.53;;
12556;SDS011;6344;49.932;8.308;2022-11-13T01:01:40;60.53;;;25.60;;
12556;SDS011;6344;49.932;8.308;2022-11-13T01:04:06;60.27;;;26.90;;
12556;SDS011;6344;49.932;8.308;2022-11-13T01:06:33;62.43;;;22.80;;
12556;SDS011;6344;49.932;8.308;2022-11-13T01:09:00;79.70;;;26.80;;
12556;SDS011;6344;49.932;8.308;2022-11-13T01:11:36;54.77;;;22.33;;
12556;SDS011;6344;49.932;8.308;2022-11-13T01:14:08;52.17;;;22.30;;
12556;SDS011;6344;49.932;8.308;2022-11-13T01:16:36;63.33;;;25.50;;
12556;SDS011;6344;49.932;8.308;2022-11-13T01:19:03;27.87;;;18.50;;
12556;SDS011;6344;49.932;8.308;2022-11-13T01:21:31;78.03;;;25.63;;
12556;SDS011;6344;49.932;8.308;2022-11-13T01:24:02;74.17;;;25.67;;
12556;SDS011;6344;49.932;8.308;2022-11-13T01:26:29;55.63;;;19.60;;
12556;SDS011;6344;49.932;8.308;2022-11-13T01:28:58;94.43;;;27.63;;
12556;SDS011;6344;49.932;8.308;2022-11-13T01:31:28;107.27;;;28.07;;
12556;SDS011;6344;49.932;8.308;2022-11-13T01:33:59;98.20;;;31.20;;
12556;SDS011;6344;49.932;8.308;2022-11-13T01:36:31;134.90;;;32.20;;
12556;SDS011;6344;49.932;8.308;2022-11-13T01:39:03;87.50;;;26.90;;
12556;SDS011;6344;49.932;8.308;2022-11-13T01:41:32;35.90;;;18.47;;
12556;SDS011;6344;49.932;8.308;2022-11-13T01:44:03;74.73;;;26.77;;
12556;SDS011;6344;49.932;8.308;2022-11-13T01:46:32;103.27;;;29.87;;
12556;SDS011;6344;49.932;8.308;2022-11-13T01:49:01;75.43;;;26.40;;
12556;SDS011;6344;49.932;8.308;2022-11-13T01:51:41;128.00;;;29.80;;
12556;SDS011;6344;49.932;8.308;2022-11-13T01:54:23;79.80;;;23.70;;
12556;SDS011;6344;49.932;8.308;2022-11-13T01:56:55;98.33;;;27.00;;
12556;SDS011;6344;49.932;8.308;2022-11-13T01:59:28;52.83;;;23.80;;
12556;SDS011;6344;49.932;8.308;2022-11-13T02:01:57;127.40;;;31.57;;
12556;SDS011;6344;49.932;8.308;2022-11-13T02:04:25;126.23;;;32.27;;
12556;SDS011;6344;49.932;8.308;2022-11-13T02:06:58;102.97;;;28.00;;
12556;SDS011;6344;49.932;8.308;2022-11-13T02:09:28;96.20;;;28.90;;
12556;SDS011;6344;49.932;8.308;2022-11-13T02:11:56;115.70;;;32.20;;
12556;SDS011;6344;49.932;8.308;2022-11-13T02:14:37;88.57;;;25.60;;
12556;SDS011;6344;49.932;8.308;2022-11-13T02:17:06;90.60;;;28.60;;
12556;SDS011;6344;49.932;8.308;2022-11-13T02:19:41;143.10;;;28.20;;
12556;SDS011;6344;49.932;8.308;2022-11-13T02:22:15;171.47;;;32.90;;
12556;SDS011;6344;49.932;8.308;2022-11-13T02:24:50;147.60;;;32.13;;
12556;SDS011;6344;49.932;8.308;2022-11-13T02:27:19;143.90;;;31.37;;
12556;SDS011;6344;49.932;8.308;2022-11-13T02:29:52;124.90;;;31.70;;
12556;SDS011;6344;49.932;8.308;2022-11-13T02:32:22;124.10;;;30.50;;
12556;SDS011;6344;49.932;8.308;2022-11-13T02:34:51;115.27;;;29.60;;
12556;SDS011;6344;49.932;8.308;2022-11-13T02:37:22;144.67;;;34.50;;
12556;SDS011;6344;49.932;8.308;2022-11-13T02:39:50;153.37;;;30.97;;
12556;SDS011;6344;49.932;8.308;2022-11-13T02:42:17;113.33;;;30.53;;
12556;SDS011;6344;49.932;8.308;2022-11-13T02:44:43;133.30;;;29.43;;
12556;SDS011;6344;49.932;8.308;2022-11-13T02:47:10;94.30;;;24.87;;
12556;SDS011;6344;49.932;8.308;2022-11-13T02:49:37;90.23;;;29.27;;
12556;SDS011;6344;49.932;8.308;2022-11-13T02:52:04;68.10;;;23.03;;
12556;SDS011;6344;49.932;8.308;2022-11-13T02:54:35;138.00;;;28.30;;
12556;SDS011;6344;49.932;8.308;2022-11-13T02:57:05;124.00;;;30.90;;
12556;SDS011;6344;49.932;8.308;2022-11-13T02:59:32;181.40;;;33.00;;
12556;SDS011;6344;49.932;8.308;2022-11-13T03:02:03;98.97;;;28.67;;
12556;SDS011;6344;49.932;8.308;2022-11-13T03:04:30;51.00;;;21.77;;
12556;SDS011;6344;49.932;8.308;2022-11-13T03:07:03;75.77;;;22.57;;
12556;SDS011;6344;49.932;8.308;2022-11-13T03:09:30;105.10;;;30.53;;
12556;SDS011;6344;49.932;8.308;2022-11-13T03:18:53;89.13;;;25.07;;
12556;SDS011;6344;49.932;8.308;2022-11-13T03:21:22;95.93;;;27.57;;
12556;SDS011;6344;49.932;8.308;2022-11-13T03:23:56;84.43;;;25.90;;
12556;SDS011;6344;49.932;8.308;2022-11-13T03:26:22;78.43;;;24.10;;
12556;SDS011;6344;49.932;8.308;2022-11-13T03:29:03;111.50;;;28.50;;
12556;SDS011;6344;49.932;8.308;2022-11-13T03:31:35;90.83;;;27.53;;
12556;SDS011;6344;49.932;8.308;2022-11-13T03:34:07;109.80;;;25.90;;
12556;SDS011;6344;49.932;8.308;2022-11-13T03:36:33;59.27;;;20.57;;
12556;SDS011;6344;49.932;8.308;2022-11-13T03:39:02;137.23;;;28.60;;
12556;SDS011;6344;49.932;8.308;2022-11-13T03:41:30;78.57;;;23.37;;
12556;SDS011;6344;49.932;8.308;2022-11-13T03:43:59;97.60;;;23.17;;
12556;SDS011;6344;49.932;8.308;2022-11-13T03:46:26;104.80;;;26.80;;
12556;SDS011;6344;49.932;8.308;2022-11-13T03:48:53;188.17;;;32.57;;
12556;SDS011;6344;49.932;8.308;2022-11-13T03:51:21;55.40;;;19.93;;
12556;SDS011;6344;49.932;8.308;2022-11-13T03:53:53;85.87;;;27.07;;
12556;SDS011;6344;49.932;8.308;2022-11-13T03:56:20;70.83;;;22.90;;
12556;SDS011;6344;49.932;8.308;2022-11-13T03:58:47;76.30;;;23.00;;
12556;SDS011;6344;49.932;8.308;2022-11-13T04:01:13;151.70;;;30.77;;
12556;SDS011;6344;49.932;8.308;2022-11-13T04:03:43;53.87;;;19.57;;
12556;SDS011;6344;49.932;8.308;2022-11-13T04:06:16;96.93;;;25.57;;
12556;SDS011;6344;49.932;8.308;2022-11-13T04:08:44;73.33;;;22.90;;
12556;SDS011;6344;49.932;8.308;2022-11-13T04:11:12;101.37;;;26.33;;
12556;SDS011;6344;49.932;8.308;2022-11-13T04:13:41;92.23;;;24.70;;
12556;SDS011;6344;49.932;8.308;2022-11-13T04:16:07;80.83;;;23.60;;
12556;SDS011;6344;49.932;8.308;2022-11-13T04:18:36;113.63;;;27.40;;
12556;SDS011;6344;49.932;8.308;2022-11-13T04:21:04;123.23;;;25.60;;
12556;SDS011;6344;49.932;8.308;2022-11-13T04:23:34;148.10;;;37.17;;
12556;SDS011;6344;49.932;8.308;2022-11-13T04:26:05;136.13;;;30.53;;
12556;SDS011;6344;49.932;8.308;2022-11-13T04:28:32;60.30;;;19.67;;
12556;SDS011;6344;49.932;8.308;2022-11-13T04:31:02;99.83;;;24.40;;
12556;SDS011;6344;49.932;8.308;2022-11-13T04:33:29;136.53;;;22.83;;
12556;SDS011;6344;49.932;8.308;2022-11-13T04:35:55;145.37;;;26.40;;
12556;SDS011;6344;49.932;8.308;2022-11-13T04:38:25;102.97;;;23.90;;
12556;SDS011;6344;49.932;8.308;2022-11-13T04:40:53;130.07;;;28.37;;
12556;SDS011;6344;49.932;8.308;2022-11-13T04:43:37;122.47;;;31.83;;
12556;SDS011;6344;49.932;8.308;2022-11-13T04:46:08;121.37;;;27.83;;
12556;SDS011;6344;49.932;8.308;2022-11-13T04:48:40;202.70;;;34.13;;
12556;SDS011;6344;49.932;8.308;2022-11-13T04:51:06;186.73;;;33.90;;
12556;SDS011;6344;49.932;8.308;2022-11-13T04:53:33;224.93;;;38.03;;
12556;SDS011;6344;49.932;8.308;2022-11-13T04:56:00;186.13;;;31.63;;
12556;SDS011;6344;49.932;8.308;2022-11-13T04:58:39;216.70;;;34.07;;
12556;SDS011;6344;49.932;8.308;2022-11-13T05:01:16;56.90;;;19.83;;
12556;SDS011;6344;49.932;8.308;2022-11-13T05:03:42;96.37;;;25.67;;
12556;SDS011;6344;49.932;8.308;2022-11-13T05:06:12;159.80;;;33.50;;
12556;SDS011;6344;49.932;8.308;2022-11-13T05:08:40;98.13;;;24.13;;
12556;SDS011;6344;49.932;8.308;2022-11-13T05:11:09;96.80;;;26.47;;
12556;SDS011;6344;49.932;8.308;2022-11-13T05:13:37;88.00;;;26.97;;
12556;SDS011;6344;49.932;8.308;2022-11-13T05:16:04;93.97;;;29.00;;
12556;SDS011;6344;49.932;8.308;2022-11-13T05:18:33;51.23;;;20.50;;
12556;SDS011;6344;49.932;8.308;2022-11-13T05:21:02;142.47;;;32.13;;
12556;SDS011;6344;49.932;8.308;2022-11-13T05:23:33;101.23;;;27.73;;
12556;SDS011;6344;49.932;8.308;2022-11-13T05:26:00;98.20;;;27.50;;
12556;SDS011;6344;49.932;8.308;2022-11-13T05:28:29;110.07;;;28.30;;
12556;SDS011;6344;49.932;8.308;2022-11-13T05:31:06;132.97;;;26.53;;
12556;SDS011;6344;49.932;8.308;2022-11-13T05:33:41;73.30;;;19.87;;
12556;SDS011;6344;49.932;8.308;2022-11-13T05:36:12;180.37;;;37.00;;
12556;SDS011;6344;49.932;8.308;2022-11-13T05:38:44;200.93;;;34.87;;
12556;SDS011;6344;49.932;8.308;2022-11-13T05:41:11;307.97;;;43.50;;
12556;SDS011;6344;49.932;8.308;2022-11-13T05:43:42;187.47;;;31.87;;
12556;SDS011;6344;49.932;8.308;2022-11-13T05:46:16;142.27;;;26.33;;
12556;SDS011;6344;49.932;8.308;2022-11-13T05:48:45;264.10;;;40.43;;
12556;SDS011;6344;49.932;8.308;2022-11-13T05:51:14;133.30;;;31.20;;
12556;SDS011;6344;49.932;8.308;2022-11-13T05:53:50;199.87;;;34.77;;
12556;SDS011;6344;49.932;8.308;2022-11-13T05:56:21;145.73;;;27.37;;
12556;SDS011;6344;49.932;8.308;2022-11-13T05:58:50;165.57;;;32.30;;
12556;SDS011;6344;49.932;8.308;2022-11-13T06:01:22;97.73;;;23.33;;
12556;SDS011;6344;49.932;8.308;2022-11-13T06:03:57;216.13;;;33.50;;
12556;SDS011;6344;49.932;8.308;2022-11-13T06:06:27;410.80;;;55.93;;
12556;SDS011;6344;49.932;8.308;2022-11-13T06:08:56;310.43;;;40.33;;
12556;SDS011;6344;49.932;8.308;2022-11-13T06:11:24;57.33;;;19.70;;
12556;SDS011;6344;49.932;8.308;2022-11-13T06:13:56;259.53;;;36.00;;
12556;SDS011;6344;49.932;8.308;2022-11-13T06:16:27;210.63;;;29.00;;
12556;SDS011;6344;49.932;8.308;2022-11-13T06:18:56;92.63;;;25.23;;
12556;SDS011;6344;49.932;8.308;2022-11-13T06:21:28;110.33;;;24.23;;
12556;SDS011;6344;49.932;8.308;2022-11-13T06:23:57;74.53;;;22.50;;
12556;SDS011;6344;49.932;8.308;2022-11-13T06:26:26;138.00;;;25.40;;
12556;SDS011;6344;49.932;8.308;2022-11-13T06:28:58;200.87;;;30.03;;
12556;SDS011;6344;49.932;8.308;2022-11-13T06:31:29;108.60;;;23.10;;
12556;SDS011;6344;49.932;8.308;2022-11-13T06:34:00;93.53;;;25.63;;
12556;SDS011;6344;49.932;8.308;2022-11-13T06:36:29;95.27;;;24.20;;
12556;SDS011;6344;49.932;8.308;2022-11-13T06:39:00;132.20;;;29.10;;
12556;SDS011;6344;49.932;8.308;2022-11-13T06:41:32;224.87;;;36.50;;
12556;SDS011;6344;49.932;8.308;2022-11-13T06:43:59;150.80;;;29.90;;
12556;SDS011;6344;49.932;8.308;2022-11-13T06:46:27;278.80;;;42.10;;
12556;SDS011;6344;49.932;8.308;2022-11-13T06:48:59;137.43;;;26.70;;
12556;SDS011;6344;49.932;8.308;2022-11-13T06:51:29;66.00;;;19.93;;
12556;SDS011;6344;49.932;8.308;2022-11-13T06:53:56;114.10;;;24.37;;
12556;SDS011;6344;49.932;8.308;2022-11-13T06:56:27;99.57;;;27.40;;
12556;SDS011;6344;49.932;8.308;2022-11-13T06:58:56;171.60;;;29.33;;
12556;SDS011;6344;49.932;8.308;2022-11-13T07:01:25;67.73;;;21.27;;
12556;SDS011;6344;49.932;8.308;2022-11-13T07:03:53;47.27;;;19.97;;
12556;SDS011;6344;49.932;8.308;2022-11-13T07:06:21;70.40;;;21.30;;
12556;SDS011;6344;49.932;8.308;2022-11-13T07:08:49;81.23;;;22.80;;
12556;SDS011;6344;49.932;8.308;2022-11-13T07:11:18;76.60;;;24.57;;
12556;SDS011;6344;49.932;8.308;2022-11-13T07:13:46;30.77;;;16.10;;
12556;SDS011;6344;49.932;8.308;2022-11-13T07:16:13;73.00;;;24.20;;
12556;SDS011;6344;49.932;8.308;2022-11-13T07:18:53;134.90;;;30.37;;
12556;SDS011;6344;49.932;8.308;2022-11-13T07:21:21;59.67;;;23.57;;
12556;SDS011;6344;49.932;8.308;2022-11-13T07:23:49;105.70;;;26.13;;
12556;SDS011;6344;49.932;8.308;2022-11-13T07:26:20;90.30;;;24.17;;
12556;SDS011;6344;49.932;8.308;2022-11-13T07:28:49;93.67;;;23.80;;
12556;SDS011;6344;49.932;8.308;2022-11-13T07:31:21;73.83;;;18.97;;
12556;SDS011;6344;49.932;8.308;2022-11-13T07:33:48;100.73;;;24.33;;
12556;SDS011;6344;49.932;8.308;2022-11-13T07:36:17;174.13;;;29.83;;
12556;SDS011;6344;49.932;8.308;2022-11-13T07:38:44;38.07;;;16.63;;
12556;SDS011;6344;49.932;8.308;2022-11-13T07:41:10;117.03;;;24.73;;
12556;SDS011;6344;49.932;8.308;2022-11-13T07:43:39;39.73;;;13.40;;
12556;SDS011;6344;49.932;8.308;2022-11-13T07:46:05;50.53;;;20.90;;
12556;SDS011;6344;49.932;8.308;2022-11-13T07:48:36;39.60;;;18.10;;
12556;SDS011;6344;49.932;8.308;2022-11-13T07:51:02;40.43;;;21.90;;
12556;SDS011;6344;49.932;8.308;2022-11-13T07:53:35;19.33;;;10.10;;
12556;SDS011;6344;49.932;8.308;2022-11-13T07:56:07;25.50;;;17.37;;
12556;SDS011;6344;49.932;8.308;2022-11-13T07:58:36;15.53;;;13.37;;
12556;SDS011;6344;49.932;8.308;2022-11-13T08:01:03;12.83;;;8.97;;
12556;SDS011;6344;49.932;8.308;2022-11-13T08:03:32;22.77;;;13.07;;
12556;SDS011;6344;49.932;8.308;2022-11-13T08:06:04;71.13;;;28.37;;
12556;SDS011;6344;49.932;8.308;2022-11-13T08:08:34;36.27;;;18.77;;
12556;SDS011;6344;49.932;8.308;2022-11-13T08:11:03;20.20;;;17.37;;
12556;SDS011;6344;49.932;8.308;2022-11-13T08:13:37;20.40;;;16.60;;
12556;SDS011;6344;49.932;8.308;2022-11-13T08:16:06;21.97;;;16.80;;
12556;SDS011;6344;49.932;8.308;2022-11-13T08:18:33;26.20;;;18.63;;
12556;SDS011;6344;49.932;8.308;2022-11-13T08:21:05;26.23;;;23.40;;
12556;SDS011;6344;49.932;8.308;2022-11-13T08:23:37;18.97;;;16.97;;
12556;SDS011;6344;49.932;8.308;2022-11-13T08:26:06;23.27;;;19.47;;
12556;SDS011;6344;49.932;8.308;2022-11-13T08:28:43;19.10;;;16.40;;
12556;SDS011;6344;49.932;8.308;2022-11-13T08:31:10;21.03;;;18.83;;
12556;SDS011;6344;49.932;8.308;2022-11-13T08:33:40;19.10;;;17.10;;
12556;SDS011;6344;49.932;8.308;2022-11-13T08:36:11;18.83;;;16.40;;
12556;SDS011;6344;49.932;8.308;2022-11-13T08:38:42;22.30;;;19.93;;
12556;SDS011;6344;49.932;8.308;2022-11-13T08:41:09;17.43;;;15.73;;
12556;SDS011;6344;49.932;8.308;2022-11-13T08:43:36;19.93;;;17.83;;
12556;SDS011;6344;49.932;8.308;2022-11-13T08:46:05;19.53;;;17.63;;
12556;SDS011;6344;49.932;8.308;2022-11-13T08:48:37;19.73;;;17.63;;
12556;SDS011;6344;49.932;8.308;2022-11-13T08:51:07;19.93;;;17.83;;
12556;SDS011;6344;49.932;8.308;2022-11-13T08:53:42;20.53;;;18.37;;
12556;SDS011;6344;49.932;8.308;2022-11-13T08:56:09;16.40;;;15.00;;
12556;SDS011;6344;49.932;8.308;2022-11-13T08:58:40;18.17;;;15.83;;
12556;SDS011;6344;49.932;8.308;2022-11-13T09:01:10;13.07;;;11.90;;
12556;SDS011;6344;49.932;8.308;2022-11-13T09:03:37;12.53;;;11.53;;
12556;SDS011;6344;49.932;8.308;2022-11-13T09:06:06;12.10;;;11.20;;
12556;SDS011;6344;49.932;8.308;2022-11-13T09:08:43;12.13;;;11.13;;
12556;SDS011;6344;49.932;8.308;2022-11-13T09:11:10;11.60;;;10.70;;
12556;SDS011;6344;49.932;8.308;2022-11-13T09:13:38;13.83;;;11.80;;
12556;SDS011;6344;49.932;8.308;2022-11-13T09:16:07;10.30;;;9.50;;
12556;SDS011;6344;49.932;8.308;2022-11-13T09:18:37;11.07;;;10.10;;
12556;SDS011;6344;49.932;8.308;2022-11-13T09:21:04;10.90;;;9.97;;
12556;SDS011;6344;49.932;8.308;2022-11-13T09:23:31;12.43;;;11.33;;
12556;SDS011;6344;49.932;8.308;2022-11-13T09:26:01;10.87;;;10.03;;
12556;SDS011;6344;49.932;8.308;2022-11-13T09:28:31;12.27;;;11.37;;
12556;SDS011;6344;49.932;8.308;2022-11-13T09:31:02;13.80;;;12.50;;
12556;SDS011;6344;49.932;8.308;2022-11-13T09:33:31;10.83;;;9.83;;
12556;SDS011;6344;49.932;8.308;2022-11-13T09:36:01;12.27;;;11.10;;
12556;SDS011;6344;49.932;8.308;2022-11-13T09:38:32;11.90;;;10.97;;
12556;SDS011;6344;49.932;8.308;2022-11-13T09:41:08;11.87;;;10.80;;
12556;SDS011;6344;49.932;8.308;2022-11-13T09:43:45;11.70;;;10.80;;
12556;SDS011;6344;49.932;8.308;2022-11-13T09:46:16;12.10;;;11.20;;
12556;SDS011;6344;49.932;8.308;2022-11-13T09:48:49;12.07;;;11.17;;
12556;SDS011;6344;49.932;8.308;2022-11-13T09:51:23;11.80;;;11.00;;
12556;SDS011;6344;49.932;8.308;2022-11-13T09:53:53;11.97;;;11.07;;
12556;SDS011;6344;49.932;8.308;2022-11-13T09:56:26;11.77;;;10.87;;
12556;SDS011;6344;49.932;8.308;2022-11-13T09:58:58;11.93;;;10.93;;
12556;SDS011;6344;49.932;8.308;2022-11-13T10:01:39;12.50;;;11.60;;
12556;SDS011;6344;49.932;8.308;2022-11-13T10:04:17;13.97;;;12.83;;
12556;SDS011;6344;49.932;8.308;2022-11-13T10:06:56;12.47;;;11.47;;
12556;SDS011;6344;49.932;8.308;2022-11-13T10:09:32;10.97;;;10.07;;
12556;SDS011;6344;49.932;8.308;2022-11-13T10:12:08;11.10;;;10.20;;
12556;SDS011;6344;49.932;8.308;2022-11-13T10:14:41;11.60;;;10.70;;
12556;SDS011;6344;49.932;8.308;2022-11-13T10:17:14;11.60;;;10.80;;
12556;SDS011;6344;49.932;8.308;2022-11-13T10:19:57;11.17;;;10.37;;
12556;SDS011;6344;49.932;8.308;2022-11-13T10:22:29;11.20;;;10.40;;
12556;SDS011;6344;49.932;8.308;2022-11-13T10:25:04;11.20;;;10.40;;
12556;SDS011;6344;49.932;8.308;2022-11-13T10:27:38;12.50;;;11.53;;
12556;SDS011;6344;49.932;8.308;2022-11-13T10:30:10;12.07;;;11.17;;
12556;SDS011;6344;49.932;8.308;2022-11-13T10:32:38;12.60;;;11.60;;
12556;SDS011;6344;49.932;8.308;2022-11-13T10:35:11;12.03;;;11.23;;
12556;SDS011;6344;49.932;8.308;2022-11-13T10:37:57;11.80;;;10.90;;
12556;SDS011;6344;49.932;8.308;2022-11-13T10:40:28;11.30;;;10.50;;
12556;SDS011;6344;49.932;8.308;2022-11-13T10:43:04;12.83;;;11.93;;
12556;SDS011;6344;49.932;8.308;2022-11-13T10:45:37;11.43;;;10.53;;
12556;SDS011;6344;49.932;8.308;2022-11-13T10:48:17;12.60;;;11.70;;
12556;SDS011;6344;49.932;8.308;2022-11-13T10:50:55;14.83;;;13.60;;
12556;SDS011;6344;49.932;8.308;2022-11-13T10:53:35;12.40;;;11.50;;
12556;SDS011;6344;49.932;8.308;2022-11-13T10:56:11;10.43;;;9.63;;
12556;SDS011;6344;49.932;8.308;2022-11-13T11:01:36;12.43;;;11.53;;
12556;SDS011;6344;49.932;8.308;2022-11-13T11:04:05;12.83;;;11.77;;
12556;SDS011;6344;49.932;8.308;2022-11-13T11:06:33;11.37;;;10.33;;
12556;SDS011;6344;49.932;8.308;2022-11-13T11:09:05;12.90;;;11.60;;
12556;SDS011;6344;49.932;8.308;2022-11-13T11:11:39;11.80;;;10.73;;
12556;SDS011;6344;49.932;8.308;2022-11-13T11:14:30;18.43;;;13.20;;
12556;SDS011;6344;49.932;8.308;2022-11-13T11:17:05;11.60;;;10.50;;
12556;SDS011;6344;49.932;8.308;2022-11-13T11:19:36;13.10;;;12.00;;
12556;SDS011;6344;49.932;8.308;2022-11-13T11:22:07;11.97;;;10.97;;
12556;SDS011;6344;49.932;8.308;2022-11-13T11:24:42;12.70;;;11.60;;
12556;SDS011;6344;49.932;8.308;2022-11-13T11:27:21;13.03;;;11.83;;
12556;SDS011;6344;49.932;8.308;2022-11-13T11:29:58;13.90;;;12.80;;
12556;SDS011;6344;49.932;8.308;2022-11-13T11:32:30;12.83;;;11.87;;
12556;SDS011;6344;49.932;8.308;2022-11-13T11:35:05;13.93;;;12.87;;
12556;SDS011;6344;49.932;8.308;2022-11-13T11:37:38;12.63;;;11.53;;
12556;SDS011;6344;49.932;8.308;2022-11-13T11:40:15;12.37;;;11.40;;
12556;SDS011;6344;49.932;8.308;2022-11-13T11:42:50;12.73;;;11.83;;
12556;SDS011;6344;49.932;8.308;2022-11-13T11:45:25;14.30;;;13.03;;
12556;SDS011;6344;49.932;8.308;2022-11-13T11:47:55;14.10;;;13.00;;
12556;SDS011;6344;49.932;8.308;2022-11-13T11:50:29;12.80;;;11.80;;
12556;SDS011;6344;49.932;8.308;2022-11-13T11:53:03;13.00;;;12.00;;
12556;SDS011;6344;49.932;8.308;2022-11-13T11:55:40;13.70;;;12.70;;
12556;SDS011;6344;49.932;8.308;2022-11-13T11:58:29;14.10;;;12.90;;
12556;SDS011;6344;49.932;8.308;2022-11-13T12:01:20;13.90;;;12.70;;
12556;SDS011;6344;49.932;8.308;2022-11-13T12:04:05;14.17;;;12.73;;
12556;SDS011;6344;49.932;8.308;2022-11-13T12:06:46;13.57;;;12.47;;
12556;SDS011;6344;49.932;8.308;2022-11-13T12:09:28;13.27;;;12.37;;
12556;SDS011;6344;49.932;8.308;2022-11-13T12:12:01;13.00;;;12.07;;
12556;SDS011;6344;49.932;8.308;2022-11-13T12:14:38;15.73;;;14.43;;
12556;SDS011;6344;49.932;8.308;2022-11-13T12:17:19;14.13;;;13.13;;
12556;SDS011;6344;49.932;8.308;2022-11-13T12:19:59;13.23;;;12.23;;
12556;SDS011;6344;49.932;8.308;2022-11-13T12:22:37;18.07;;;16.37;;
12556;SDS011;6344;49.932;8.308;2022-11-13T12:25:13;13.93;;;12.97;;
12556;SDS011;6344;49.932;8.308;2022-11-13T12:27:46;14.73;;;13.67;;
12556;SDS011;6344;49.932;8.308;2022-11-13T12:30:20;12.87;;;11.87;;
12556;SDS011;6344;49.932;8.308;2022-11-13T12:35:48;12.73;;;11.80;;
12556;SDS011;6344;49.932;8.308;2022-11-13T12:38:21;13.07;;;12.07;;
12556;SDS011;6344;49.932;8.308;2022-11-13T12:40:56;13.40;;;12.37;;
12556;SDS011;6344;49.932;8.308;2022-11-13T12:43:30;13.67;;;12.67;;
12556;SDS011;6344;49.932;8.308;2022-11-13T12:46:08;13.70;;;12.77;;
12556;SDS011;6344;49.932;8.308;2022-11-13T12:48:57;14.30;;;13.30;;
12556;SDS011;6344;49.932;8.308;2022-11-13T12:51:38;15.83;;;14.43;;
12556;SDS011;6344;49.932;8.308;2022-11-13T12:54:09;11.83;;;11.03;;
12556;SDS011;6344;49.932;8.308;2022-11-13T12:56:36;13.00;;;12.00;;
12556;SDS011;6344;49.932;8.308;2022-11-13T12:59:05;10.53;;;9.83;;
12556;SDS011;6344;49.932;8.308;2022-11-13T13:01:52;9.90;;;9.30;;
12556;SDS011;6344;49.932;8.308;2022-11-13T13:04:29;9.63;;;9.03;;
12556;SDS011;6344;49.932;8.308;2022-11-13T13:07:17;10.20;;;9.20;;
12556;SDS011;6344;49.932;8.308;2022-11-13T13:10:04;9.90;;;9.20;;
12556;SDS011;6344;49.932;8.308;2022-11-13T13:12:42;9.07;;;8.47;;
12556;SDS011;6344;49.932;8.308;2022-11-13T13:15:24;9.63;;;8.80;;
12556;SDS011;6344;49.932;8.308;2022-11-13T13:18:04;9.60;;;8.73;;
12556;SDS011;6344;49.932;8.308;2022-11-13T13:20:37;9.30;;;8.60;;
12556;SDS011;6344;49.932;8.308;2022-11-13T13:23:08;7.97;;;7.47;;
12556;SDS011;6344;49.932;8.308;2022-11-13T13:25:36;8.30;;;7.80;;
12556;SDS011;6344;49.932;8.308;2022-11-13T13:28:14;9.30;;;8.60;;
12556;SDS011;6344;49.932;8.308;2022-11-13T13:30:47;8.47;;;7.87;;
12556;SDS011;6344;49.932;8.308;2022-11-13T13:33:20;7.73;;;7.23;;
12556;SDS011;6344;49.932;8.308;2022-11-13T13:35:54;8.00;;;7.50;;
12556;SDS011;6344;49.932;8.308;2022-11-13T13:38:30;9.40;;;8.80;;
12556;SDS011;6344;49.932;8.308;2022-11-13T13:41:08;11.23;;;10.57;;
12556;SDS011;6344;49.932;8.308;2022-11-13T13:43:45;10.17;;;9.37;;
12556;SDS011;6344;49.932;8.308;2022-11-13T13:46:20;10.17;;;9.47;;
12556;SDS011;6344;49.932;8.308;2022-11-13T13:48:49;9.27;;;8.67;;
12556;SDS011;6344;49.932;8.308;2022-11-13T13:51:23;9.80;;;9.10;;
12556;SDS011;6344;49.932;8.308;2022-11-13T13:53:53;8.43;;;7.83;;
12556;SDS011;6344;49.932;8.308;2022-11-13T13:56:21;9.40;;;8.60;;
12556;SDS011;6344;49.932;8.308;2022-11-13T13:58:50;10.40;;;9.50;;
12556;SDS011;6344;49.932;8.308;2022-11-13T14:01:25;9.07;;;8.33;;
12556;SDS011;6344;49.932;8.308;2022-11-13T14:04:05;9.30;;;8.60;;
12556;SDS011;6344;49.932;8.308;2022-11-13T14:06:47;8.93;;;8.30;;
12556;SDS011;6344;49.932;8.308;2022-11-13T14:09:15;9.33;;;8.43;;
12556;SDS011;6344;49.932;8.308;2022-11-13T14:11:44;9.00;;;8.13;;
12556;SDS011;6344;49.932;8.308;2022-11-13T14:14:15;8.60;;;8.00;;
12556;SDS011;6344;49.932;8.308;2022-11-13T14:16:48;8.80;;;8.13;;
12556;SDS011;6344;49.932;8.308;2022-11-13T14:19:16;8.63;;;8.03;;
12556;SDS011;6344;49.932;8.308;2022-11-13T14:21:53;10.03;;;9.20;;
12556;SDS011;6344;49.932;8.308;2022-11-13T14:24:23;10.20;;;9.40;;
12556;SDS011;6344;49.932;8.308;2022-11-13T14:26:58;11.37;;;8.63;;
12556;SDS011;6344;49.932;8.308;2022-11-13T14:29:33;9.90;;;8.90;;
12556;SDS011;6344;49.932;8.308;2022-11-13T14:32:03;15.10;;;13.90;;
12556;SDS011;6344;49.932;8.308;2022-11-13T14:34:35;15.37;;;13.80;;
12556;SDS011;6344;49.932;8.308;2022-11-13T14:37:14;12.57;;;11.30;;
12556;SDS011;6344;49.932;8.308;2022-11-13T14:39:46;16.77;;;14.73;;
12556;SDS011;6344;49.932;8.308;2022-11-13T14:42:17;11.23;;;10.13;;
12556;SDS011;6344;49.932;8.308;2022-11-13T14:44:49;9.87;;;9.07;;
12556;SDS011;6344;49.932;8.308;2022-11-13T14:47:21;11.50;;;10.60;;
12556;SDS011;6344;49.932;8.308;2022-11-13T14:49:50;10.77;;;9.67;;
12556;SDS011;6344;49.932;8.308;2022-11-13T14:52:22;10.70;;;9.80;;
12556;SDS011;6344;49.932;8.308;2022-11-13T14:54:59;10.70;;;9.73;;
12556;SDS011;6344;49.932;8.308;2022-11-13T14:57:27;11.50;;;10.50;;
12556;SDS011;6344;49.932;8.308;2022-11-13T14:59:56;19.40;;;17.63;;
12556;SDS011;6344;49.932;8.308;2022-11-13T15:02:37;16.20;;;14.80;;
12556;SDS011;6344;49.932;8.308;2022-11-13T15:05:05;27.20;;;24.40;;
12556;SDS011;6344;49.932;8.308;2022-11-13T15:07:37;12.37;;;11.20;;
12556;SDS011;6344;49.932;8.308;2022-11-13T15:10:09;12.53;;;11.33;;
12556;SDS011;6344;49.932;8.308;2022-11-13T15:12:39;13.70;;;10.00;;